sensor_id;sensor_type;location;lat;lon;timestamp;temperature;humidity
8953;DHT22;4511;50.890;8.054;2022-07-23T00:01:11;20.10;99.90
8953;DHT22;4511;50.890;8.054;2022-07-23T00:03:37;20.20;99.90
8953;DHT22;4511;50.890;8.054;2022-07-23T00:06:04;20.10;99.90
8953;DHT22;4511;50.890;8.054;2022-07-23T00:08:31;20.00;99.90
8953;DHT22;4511;50.890;8.054;2022-07-23T00:10:58;20.10;99.90
8953;DHT22;4511;50.890;8.054;2022-07-23T00:13:26;20.20;99.90
8953;DHT22;4511;50.890;8.054;2022-07-23T00:15:52;20.20;99.90
8953;DHT22;4511;50.890;8.054;2022-07-23T00:18:21;20.20;99.90
8953;DHT22;4511;50.890;8.054;2022-07-23T00:20:48;20.10;99.90
8953;DHT22;4511;50.890;8.054;2022-07-23T00:23:15;20.10;99.90
8953;DHT22;4511;50.890;8.054;2022-07-23T00:25:42;20.00;99.90
8953;DHT22;4511;50.890;8.054;2022-07-23T00:28:10;20.10;99.90
8953;DHT22;4511;50.890;8.054;2022-07-23T00:30:37;20.20;99.90
8953;DHT22;4511;50.890;8.054;2022-07-23T00:33:06;20.20;99.90
8953;DHT22;4511;50.890;8.054;2022-07-23T00:35:36;20.10;99.90
8953;DHT22;4511;50.890;8.054;2022-07-23T00:38:06;20.10;99.90
8953;DHT22;4511;50.890;8.054;2022-07-23T00:40:33;20.10;99.90
8953;DHT22;4511;50.890;8.054;2022-07-23T00:43:00;20.00;99.90
8953;DHT22;4511;50.890;8.054;2022-07-23T00:45:27;19.90;99.90
8953;DHT22;4511;50.890;8.054;2022-07-23T00:47:54;19.80;99.90
8953;DHT22;4511;50.890;8.054;2022-07-23T00:50:21;19.90;99.90
8953;DHT22;4511;50.890;8.054;2022-07-23T00:52:50;19.90;99.90
8953;DHT22;4511;50.890;8.054;2022-07-23T00:55:18;19.90;99.90
8953;DHT22;4511;50.890;8.054;2022-07-23T00:57:45;19.90;99.90
8953;DHT22;4511;50.890;8.054;2022-07-23T01:00:13;19.90;99.90
8953;DHT22;4511;50.890;8.054;2022-07-23T01:02:41;19.90;99.90
8953;DHT22;4511;50.890;8.054;2022-07-23T01:05:09;19.80;99.90
8953;DHT22;4511;50.890;8.054;2022-07-23T01:07:36;19.80;99.90
8953;DHT22;4511;50.890;8.054;2022-07-23T01:10:05;19.70;99.90
8953;DHT22;4511;50.890;8.054;2022-07-23T01:12:53;19.60;99.90
8953;DHT22;4511;50.890;8.054;2022-07-23T01:15:20;19.60;99.90
8953;DHT22;4511;50.890;8.054;2022-07-23T01:17:46;19.60;99.90
8953;DHT22;4511;50.890;8.054;2022-07-23T01:20:13;19.60;99.90
8953;DHT22;4511;50.890;8.054;2022-07-23T01:22:41;19.60;99.90
8953;DHT22;4511;50.890;8.054;2022-07-23T01:25:08;19.70;99.90
8953;DHT22;4511;50.890;8.054;2022-07-23T01:27:35;19.70;99.90
8953;DHT22;4511;50.890;8.054;2022-07-23T01:30:04;19.60;99.90
8953;DHT22;4511;50.890;8.054;2022-07-23T01:32:31;19.60;99.90
8953;DHT22;4511;50.890;8.054;2022-07-23T01:34:57;19.60;99.90
8953;DHT22;4511;50.890;8.054;2022-07-23T01:37:24;19.50;99.90
8953;DHT22;4511;50.890;8.054;2022-07-23T01:39:52;19.50;99.90
8953;DHT22;4511;50.890;8.054;2022-07-23T01:42:19;19.50;99.90
8953;DHT22;4511;50.890;8.054;2022-07-23T01:44:46;19.60;99.90
8953;DHT22;4511;50.890;8.054;2022-07-23T01:47:13;19.60;99.90
8953;DHT22;4511;50.890;8.054;2022-07-23T01:49:39;19.60;99.90
8953;DHT22;4511;50.890;8.054;2022-07-23T01:52:06;19.70;99.90
8953;DHT22;4511;50.890;8.054;2022-07-23T01:54:37;19.60;99.90
8953;DHT22;4511;50.890;8.054;2022-07-23T01:57:05;19.60;99.90
8953;DHT22;4511;50.890;8.054;2022-07-23T01:59:32;19.60;99.90
8953;DHT22;4511;50.890;8.054;2022-07-23T02:01:59;19.60;99.90
8953;DHT22;4511;50.890;8.054;2022-07-23T02:04:26;19.60;99.90
8953;DHT22;4511;50.890;8.054;2022-07-23T02:06:53;19.60;99.90
8953;DHT22;4511;50.890;8.054;2022-07-23T02:09:20;19.50;99.90
8953;DHT22;4511;50.890;8.054;2022-07-23T02:11:48;19.60;99.90
8953;DHT22;4511;50.890;8.054;2022-07-23T02:14:16;19.60;99.90
8953;DHT22;4511;50.890;8.054;2022-07-23T02:16:42;19.60;99.90
8953;DHT22;4511;50.890;8.054;2022-07-23T02:19:09;19.50;99.90
8953;DHT22;4511;50.890;8.054;2022-07-23T02:21:36;19.50;99.90
8953;DHT22;4511;50.890;8.054;2022-07-23T02:24:03;19.50;99.90
8953;DHT22;4511;50.890;8.054;2022-07-23T02:26:30;19.50;99.90
8953;DHT22;4511;50.890;8.054;2022-07-23T02:29:00;19.40;99.90
8953;DHT22;4511;50.890;8.054;2022-07-23T02:31:28;19.40;99.90
8953;DHT22;4511;50.890;8.054;2022-07-23T02:33:55;19.40;99.90
8953;DHT22;4511;50.890;8.054;2022-07-23T02:36:22;19.30;99.90
8953;DHT22;4511;50.890;8.054;2022-07-23T02:38:49;19.20;99.90
8953;DHT22;4511;50.890;8.054;2022-07-23T02:41:15;19.20;99.90
8953;DHT22;4511;50.890;8.054;2022-07-23T02:43:42;19.00;99.90
8953;DHT22;4511;50.890;8.054;2022-07-23T02:46:09;19.10;99.90
8953;DHT22;4511;50.890;8.054;2022-07-23T02:48:37;19.20;99.90
8953;DHT22;4511;50.890;8.054;2022-07-23T02:51:04;19.20;99.90
8953;DHT22;4511;50.890;8.054;2022-07-23T02:53:31;19.30;99.90
8953;DHT22;4511;50.890;8.054;2022-07-23T02:55:57;19.30;99.90
8953;DHT22;4511;50.890;8.054;2022-07-23T02:58:24;19.20;99.90
8953;DHT22;4511;50.890;8.054;2022-07-23T03:00:52;19.20;99.90
8953;DHT22;4511;50.890;8.054;2022-07-23T03:03:19;19.20;99.90
8953;DHT22;4511;50.890;8.054;2022-07-23T03:05:47;19.20;99.90
8953;DHT22;4511;50.890;8.054;2022-07-23T03:08:14;19.20;99.90
8953;DHT22;4511;50.890;8.054;2022-07-23T03:10:41;19.10;99.90
8953;DHT22;4511;50.890;8.054;2022-07-23T03:13:08;19.20;99.90
8953;DHT22;4511;50.890;8.054;2022-07-23T03:15:34;19.10;99.90
8953;DHT22;4511;50.890;8.054;2022-07-23T03:18:01;18.70;99.90
8953;DHT22;4511;50.890;8.054;2022-07-23T03:20:28;18.40;99.90
8953;DHT22;4511;50.890;8.054;2022-07-23T03:22:56;18.30;99.90
8953;DHT22;4511;50.890;8.054;2022-07-23T03:25:23;18.20;99.90
8953;DHT22;4511;50.890;8.054;2022-07-23T03:27:49;18.40;99.90
8953;DHT22;4511;50.890;8.054;2022-07-23T03:30:16;18.60;99.90
8953;DHT22;4511;50.890;8.054;2022-07-23T03:32:43;18.70;99.90
8953;DHT22;4511;50.890;8.054;2022-07-23T03:35:10;18.70;99.90
8953;DHT22;4511;50.890;8.054;2022-07-23T03:37:36;18.70;99.90
8953;DHT22;4511;50.890;8.054;2022-07-23T03:40:06;18.50;99.90
8953;DHT22;4511;50.890;8.054;2022-07-23T03:42:33;18.60;99.90
8953;DHT22;4511;50.890;8.054;2022-07-23T03:45:00;18.70;99.90
8953;DHT22;4511;50.890;8.054;2022-07-23T03:47:27;18.60;99.90
8953;DHT22;4511;50.890;8.054;2022-07-23T03:49:53;18.50;99.90
8953;DHT22;4511;50.890;8.054;2022-07-23T03:52:20;18.50;99.90
8953;DHT22;4511;50.890;8.054;2022-07-23T03:54:47;18.50;99.90
8953;DHT22;4511;50.890;8.054;2022-07-23T03:57:15;18.40;99.90
8953;DHT22;4511;50.890;8.054;2022-07-23T03:59:41;18.20;99.90
8953;DHT22;4511;50.890;8.054;2022-07-23T04:02:08;18.00;99.90
8953;DHT22;4511;50.890;8.054;2022-07-23T04:04:35;18.20;99.90
8953;DHT22;4511;50.890;8.054;2022-07-23T04:07:02;18.20;99.90
8953;DHT22;4511;50.890;8.054;2022-07-23T04:09:28;18.20;99.90
8953;DHT22;4511;50.890;8.054;2022-07-23T04:11:55;18.20;99.90
8953;DHT22;4511;50.890;8.054;2022-07-23T04:14:23;18.20;99.90
8953;DHT22;4511;50.890;8.054;2022-07-23T04:16:50;18.10;99.90
8953;DHT22;4511;50.890;8.054;2022-07-23T04:19:17;18.10;99.90
8953;DHT22;4511;50.890;8.054;2022-07-23T04:21:43;18.00;99.90
8953;DHT22;4511;50.890;8.054;2022-07-23T04:24:10;17.90;99.90
8953;DHT22;4511;50.890;8.054;2022-07-23T04:26:37;17.90;99.90
8953;DHT22;4511;50.890;8.054;2022-07-23T04:29:03;18.00;99.90
8953;DHT22;4511;50.890;8.054;2022-07-23T04:31:32;18.00;99.90
8953;DHT22;4511;50.890;8.054;2022-07-23T04:33:59;18.00;99.90
8953;DHT22;4511;50.890;8.054;2022-07-23T04:36:25;18.10;99.90
8953;DHT22;4511;50.890;8.054;2022-07-23T04:38:53;18.10;99.90
8953;DHT22;4511;50.890;8.054;2022-07-23T04:41:19;18.10;99.90
8953;DHT22;4511;50.890;8.054;2022-07-23T04:43:46;18.10;99.90
8953;DHT22;4511;50.890;8.054;2022-07-23T04:46:13;18.20;99.90
8953;DHT22;4511;50.890;8.054;2022-07-23T04:48:41;18.20;99.90
8953;DHT22;4511;50.890;8.054;2022-07-23T04:51:08;18.10;99.90
8953;DHT22;4511;50.890;8.054;2022-07-23T04:53:36;18.00;99.90
8953;DHT22;4511;50.890;8.054;2022-07-23T04:56:04;18.10;99.90
8953;DHT22;4511;50.890;8.054;2022-07-23T04:58:30;18.10;99.90
8953;DHT22;4511;50.890;8.054;2022-07-23T05:00:58;18.20;99.90
8953;DHT22;4511;50.890;8.054;2022-07-23T05:03:24;18.20;99.90
8953;DHT22;4511;50.890;8.054;2022-07-23T05:05:52;18.10;99.90
8953;DHT22;4511;50.890;8.054;2022-07-23T05:08:19;18.00;99.90
8953;DHT22;4511;50.890;8.054;2022-07-23T05:10:46;17.90;99.90
8953;DHT22;4511;50.890;8.054;2022-07-23T05:13:14;18.00;99.90
8953;DHT22;4511;50.890;8.054;2022-07-23T05:15:41;18.10;99.90
8953;DHT22;4511;50.890;8.054;2022-07-23T05:18:08;18.20;99.90
8953;DHT22;4511;50.890;8.054;2022-07-23T05:20:34;18.40;99.90
8953;DHT22;4511;50.890;8.054;2022-07-23T05:23:03;18.40;99.90
8953;DHT22;4511;50.890;8.054;2022-07-23T05:25:30;18.50;99.90
8953;DHT22;4511;50.890;8.054;2022-07-23T05:27:56;18.50;99.90
8953;DHT22;4511;50.890;8.054;2022-07-23T05:30:23;18.60;99.90
8953;DHT22;4511;50.890;8.054;2022-07-23T05:32:50;18.60;99.90
8953;DHT22;4511;50.890;8.054;2022-07-23T05:35:17;18.80;99.90
8953;DHT22;4511;50.890;8.054;2022-07-23T05:37:44;18.80;99.90
8953;DHT22;4511;50.890;8.054;2022-07-23T05:40:12;18.80;99.90
8953;DHT22;4511;50.890;8.054;2022-07-23T05:42:40;18.90;99.90
8953;DHT22;4511;50.890;8.054;2022-07-23T05:45:08;18.80;99.90
8953;DHT22;4511;50.890;8.054;2022-07-23T05:47:42;18.90;99.90
8953;DHT22;4511;50.890;8.054;2022-07-23T05:50:10;18.90;99.90
8953;DHT22;4511;50.890;8.054;2022-07-23T05:52:37;19.10;99.90
8953;DHT22;4511;50.890;8.054;2022-07-23T05:55:04;19.10;99.90
8953;DHT22;4511;50.890;8.054;2022-07-23T05:57:32;19.20;99.90
8953;DHT22;4511;50.890;8.054;2022-07-23T05:59:59;19.30;99.90
8953;DHT22;4511;50.890;8.054;2022-07-23T06:02:26;19.30;99.90
8953;DHT22;4511;50.890;8.054;2022-07-23T06:04:53;19.40;99.90
8953;DHT22;4511;50.890;8.054;2022-07-23T06:07:20;19.40;99.90
8953;DHT22;4511;50.890;8.054;2022-07-23T06:09:46;19.40;99.90
8953;DHT22;4511;50.890;8.054;2022-07-23T06:12:14;19.50;99.90
8953;DHT22;4511;50.890;8.054;2022-07-23T06:14:43;19.40;99.90
8953;DHT22;4511;50.890;8.054;2022-07-23T06:17:10;19.50;99.90
8953;DHT22;4511;50.890;8.054;2022-07-23T06:19:36;19.40;99.90
8953;DHT22;4511;50.890;8.054;2022-07-23T06:22:03;19.50;99.90
8953;DHT22;4511;50.890;8.054;2022-07-23T06:24:30;19.50;99.90
8953;DHT22;4511;50.890;8.054;2022-07-23T06:26:57;19.50;99.90
8953;DHT22;4511;50.890;8.054;2022-07-23T06:29:23;19.60;99.90
8953;DHT22;4511;50.890;8.054;2022-07-23T06:31:51;19.70;99.90
8953;DHT22;4511;50.890;8.054;2022-07-23T06:34:18;19.70;99.90
8953;DHT22;4511;50.890;8.054;2022-07-23T06:36:45;19.50;99.90
8953;DHT22;4511;50.890;8.054;2022-07-23T06:39:12;19.40;99.90
8953;DHT22;4511;50.890;8.054;2022-07-23T06:41:38;19.40;99.90
8953;DHT22;4511;50.890;8.054;2022-07-23T06:44:05;19.70;99.90
8953;DHT22;4511;50.890;8.054;2022-07-23T06:46:32;19.60;99.90
8953;DHT22;4511;50.890;8.054;2022-07-23T06:49:00;19.70;99.90
8953;DHT22;4511;50.890;8.054;2022-07-23T06:51:27;19.80;99.90
8953;DHT22;4511;50.890;8.054;2022-07-23T06:53:53;19.80;99.90
8953;DHT22;4511;50.890;8.054;2022-07-23T06:56:20;19.80;99.90
8953;DHT22;4511;50.890;8.054;2022-07-23T06:58:47;19.90;99.90
8953;DHT22;4511;50.890;8.054;2022-07-23T07:01:13;20.00;99.90
8953;DHT22;4511;50.890;8.054;2022-07-23T07:03:40;20.00;99.90
8953;DHT22;4511;50.890;8.054;2022-07-23T07:06:08;20.00;99.90
8953;DHT22;4511;50.890;8.054;2022-07-23T07:08:35;20.10;99.90
8953;DHT22;4511;50.890;8.054;2022-07-23T07:11:03;20.10;99.90
8953;DHT22;4511;50.890;8.054;2022-07-23T07:13:30;20.20;99.90
8953;DHT22;4511;50.890;8.054;2022-07-23T07:15:57;20.20;99.90
8953;DHT22;4511;50.890;8.054;2022-07-23T07:18:23;20.20;99.90
8953;DHT22;4511;50.890;8.054;2022-07-23T07:20:50;20.10;99.90
8953;DHT22;4511;50.890;8.054;2022-07-23T07:23:18;20.20;99.90
8953;DHT22;4511;50.890;8.054;2022-07-23T07:25:45;20.30;99.90
8953;DHT22;4511;50.890;8.054;2022-07-23T07:28:12;20.20;99.90
8953;DHT22;4511;50.890;8.054;2022-07-23T07:30:39;20.20;99.90
8953;DHT22;4511;50.890;8.054;2022-07-23T07:33:06;20.20;99.90
8953;DHT22;4511;50.890;8.054;2022-07-23T07:35:33;20.20;99.90
8953;DHT22;4511;50.890;8.054;2022-07-23T07:38:00;20.10;99.90
8953;DHT22;4511;50.890;8.054;2022-07-23T07:40:28;20.10;99.90
8953;DHT22;4511;50.890;8.054;2022-07-23T07:42:54;20.10;99.90
8953;DHT22;4511;50.890;8.054;2022-07-23T07:45:23;20.20;99.90
8953;DHT22;4511;50.890;8.054;2022-07-23T07:47:51;20.30;99.90
8953;DHT22;4511;50.890;8.054;2022-07-23T07:50:18;20.30;99.90
8953;DHT22;4511;50.890;8.054;2022-07-23T07:52:44;20.40;99.90
8953;DHT22;4511;50.890;8.054;2022-07-23T07:55:12;20.50;99.90
8953;DHT22;4511;50.890;8.054;2022-07-23T07:57:41;20.50;99.90
8953;DHT22;4511;50.890;8.054;2022-07-23T08:00:09;20.70;99.90
8953;DHT22;4511;50.890;8.054;2022-07-23T08:02:43;20.70;99.90
8953;DHT22;4511;50.890;8.054;2022-07-23T08:05:11;20.90;99.90
8953;DHT22;4511;50.890;8.054;2022-07-23T08:07:38;20.90;99.90
8953;DHT22;4511;50.890;8.054;2022-07-23T08:10:06;20.80;99.90
8953;DHT22;4511;50.890;8.054;2022-07-23T08:12:43;20.90;99.90
8953;DHT22;4511;50.890;8.054;2022-07-23T08:15:11;20.90;99.90
8953;DHT22;4511;50.890;8.054;2022-07-23T08:17:38;21.10;99.90
8953;DHT22;4511;50.890;8.054;2022-07-23T08:20:06;21.00;99.90
8953;DHT22;4511;50.890;8.054;2022-07-23T08:22:47;20.90;99.90
8953;DHT22;4511;50.890;8.054;2022-07-23T08:25:15;21.00;99.90
8953;DHT22;4511;50.890;8.054;2022-07-23T08:27:44;21.10;99.90
8953;DHT22;4511;50.890;8.054;2022-07-23T08:30:10;21.20;99.90
8953;DHT22;4511;50.890;8.054;2022-07-23T08:32:51;21.20;99.90
8953;DHT22;4511;50.890;8.054;2022-07-23T08:35:21;21.20;99.90
8953;DHT22;4511;50.890;8.054;2022-07-23T08:37:47;21.40;99.90
8953;DHT22;4511;50.890;8.054;2022-07-23T08:40:14;21.40;99.90
8953;DHT22;4511;50.890;8.054;2022-07-23T08:42:41;21.50;99.90
8953;DHT22;4511;50.890;8.054;2022-07-23T08:45:09;21.50;99.90
8953;DHT22;4511;50.890;8.054;2022-07-23T08:47:37;21.50;99.90
8953;DHT22;4511;50.890;8.054;2022-07-23T08:50:05;21.50;99.90
8953;DHT22;4511;50.890;8.054;2022-07-23T08:52:35;21.50;99.90
8953;DHT22;4511;50.890;8.054;2022-07-23T08:55:03;21.60;99.90
8953;DHT22;4511;50.890;8.054;2022-07-23T08:57:31;21.80;99.90
8953;DHT22;4511;50.890;8.054;2022-07-23T08:59:57;21.80;99.90
8953;DHT22;4511;50.890;8.054;2022-07-23T09:02:25;22.00;99.90
8953;DHT22;4511;50.890;8.054;2022-07-23T09:04:52;22.00;99.90
8953;DHT22;4511;50.890;8.054;2022-07-23T09:07:19;22.10;99.90
8953;DHT22;4511;50.890;8.054;2022-07-23T09:09:46;22.10;99.90
8953;DHT22;4511;50.890;8.054;2022-07-23T09:12:12;22.20;99.90
8953;DHT22;4511;50.890;8.054;2022-07-23T09:14:41;22.10;99.90
8953;DHT22;4511;50.890;8.054;2022-07-23T09:17:10;22.20;99.90
8953;DHT22;4511;50.890;8.054;2022-07-23T09:19:40;22.10;99.90
8953;DHT22;4511;50.890;8.054;2022-07-23T09:22:18;22.20;99.90
8953;DHT22;4511;50.890;8.054;2022-07-23T09:25:01;22.20;99.90
8953;DHT22;4511;50.890;8.054;2022-07-23T09:27:46;22.50;99.90
8953;DHT22;4511;50.890;8.054;2022-07-23T09:30:13;22.50;99.90
8953;DHT22;4511;50.890;8.054;2022-07-23T09:32:40;22.60;99.90
8953;DHT22;4511;50.890;8.054;2022-07-23T09:35:09;22.60;99.90
8953;DHT22;4511;50.890;8.054;2022-07-23T09:37:36;22.50;99.90
8953;DHT22;4511;50.890;8.054;2022-07-23T09:40:07;22.70;99.90
8953;DHT22;4511;50.890;8.054;2022-07-23T09:42:35;22.90;99.90
8953;DHT22;4511;50.890;8.054;2022-07-23T09:45:02;23.00;99.90
8953;DHT22;4511;50.890;8.054;2022-07-23T09:47:30;22.90;99.90
8953;DHT22;4511;50.890;8.054;2022-07-23T09:49:59;23.00;99.90
8953;DHT22;4511;50.890;8.054;2022-07-23T09:52:29;23.20;99.90
8953;DHT22;4511;50.890;8.054;2022-07-23T09:55:00;23.40;99.90
8953;DHT22;4511;50.890;8.054;2022-07-23T09:57:28;23.40;99.90
8953;DHT22;4511;50.890;8.054;2022-07-23T09:59:58;23.50;99.90
8953;DHT22;4511;50.890;8.054;2022-07-23T10:02:28;23.80;99.90
8953;DHT22;4511;50.890;8.054;2022-07-23T10:04:55;24.00;99.90
8953;DHT22;4511;50.890;8.054;2022-07-23T10:07:22;24.00;99.90
8953;DHT22;4511;50.890;8.054;2022-07-23T10:09:51;24.00;99.90
8953;DHT22;4511;50.890;8.054;2022-07-23T10:12:19;23.70;99.90
8953;DHT22;4511;50.890;8.054;2022-07-23T10:14:54;23.90;99.90
8953;DHT22;4511;50.890;8.054;2022-07-23T10:17:22;24.00;99.90
8953;DHT22;4511;50.890;8.054;2022-07-23T10:19:50;24.20;99.90
8953;DHT22;4511;50.890;8.054;2022-07-23T10:22:21;24.40;99.90
8953;DHT22;4511;50.890;8.054;2022-07-23T10:24:58;24.60;99.90
8953;DHT22;4511;50.890;8.054;2022-07-23T10:30:22;24.20;99.90
8953;DHT22;4511;50.890;8.054;2022-07-23T10:33:02;24.30;99.90
8953;DHT22;4511;50.890;8.054;2022-07-23T10:35:47;24.30;99.90
8953;DHT22;4511;50.890;8.054;2022-07-23T10:38:27;25.00;99.90
8953;DHT22;4511;50.890;8.054;2022-07-23T10:40:59;24.90;99.90
8953;DHT22;4511;50.890;8.054;2022-07-23T10:43:27;25.10;99.90
8953;DHT22;4511;50.890;8.054;2022-07-23T10:45:55;25.30;99.90
8953;DHT22;4511;50.890;8.054;2022-07-23T10:48:23;25.40;99.90
8953;DHT22;4511;50.890;8.054;2022-07-23T10:51:07;25.60;99.90
8953;DHT22;4511;50.890;8.054;2022-07-23T10:53:52;25.70;99.90
8953;DHT22;4511;50.890;8.054;2022-07-23T10:56:50;25.60;99.90
8953;DHT22;4511;50.890;8.054;2022-07-23T10:59:17;25.60;99.90
8953;DHT22;4511;50.890;8.054;2022-07-23T11:01:43;26.10;99.90
8953;DHT22;4511;50.890;8.054;2022-07-23T11:04:10;26.30;99.90
8953;DHT22;4511;50.890;8.054;2022-07-23T11:07:06;26.40;99.90
8953;DHT22;4511;50.890;8.054;2022-07-23T11:09:39;26.80;99.90
8953;DHT22;4511;50.890;8.054;2022-07-23T11:12:44;27.10;99.90
8953;DHT22;4511;50.890;8.054;2022-07-23T11:15:11;26.80;99.90
8953;DHT22;4511;50.890;8.054;2022-07-23T11:17:58;26.50;99.90
8953;DHT22;4511;50.890;8.054;2022-07-23T11:20:26;26.20;99.90
8953;DHT22;4511;50.890;8.054;2022-07-23T11:22:55;26.70;99.90
8953;DHT22;4511;50.890;8.054;2022-07-23T11:25:34;27.30;99.90
8953;DHT22;4511;50.890;8.054;2022-07-23T11:28:15;27.60;98.80
8953;DHT22;4511;50.890;8.054;2022-07-23T11:30:43;27.70;99.00
8953;DHT22;4511;50.890;8.054;2022-07-23T11:33:19;27.50;99.60
8953;DHT22;4511;50.890;8.054;2022-07-23T11:35:47;27.40;98.60
8953;DHT22;4511;50.890;8.054;2022-07-23T11:38:17;27.40;99.10
8953;DHT22;4511;50.890;8.054;2022-07-23T11:40:45;26.90;98.70
8953;DHT22;4511;50.890;8.054;2022-07-23T11:43:14;27.20;99.30
8953;DHT22;4511;50.890;8.054;2022-07-23T11:45:43;27.50;99.20
8953;DHT22;4511;50.890;8.054;2022-07-23T11:48:16;27.90;99.00
8953;DHT22;4511;50.890;8.054;2022-07-23T11:50:43;28.10;98.40
8953;DHT22;4511;50.890;8.054;2022-07-23T11:53:10;28.20;96.80
8953;DHT22;4511;50.890;8.054;2022-07-23T11:55:37;28.30;97.40
8953;DHT22;4511;50.890;8.054;2022-07-23T11:58:04;28.30;97.80
8953;DHT22;4511;50.890;8.054;2022-07-23T12:00:33;28.50;98.10
8953;DHT22;4511;50.890;8.054;2022-07-23T12:03:01;28.70;98.00
8953;DHT22;4511;50.890;8.054;2022-07-23T12:05:30;28.20;97.10
8953;DHT22;4511;50.890;8.054;2022-07-23T12:07:58;28.00;97.40
8953;DHT22;4511;50.890;8.054;2022-07-23T12:10:28;28.50;97.10
8953;DHT22;4511;50.890;8.054;2022-07-23T12:12:57;28.20;96.80
8953;DHT22;4511;50.890;8.054;2022-07-23T12:15:25;28.00;97.50
8953;DHT22;4511;50.890;8.054;2022-07-23T12:17:54;28.30;98.10
8953;DHT22;4511;50.890;8.054;2022-07-23T12:20:22;28.00;97.50
8953;DHT22;4511;50.890;8.054;2022-07-23T12:22:51;28.00;95.90
8953;DHT22;4511;50.890;8.054;2022-07-23T12:25:19;28.50;95.60
8953;DHT22;4511;50.890;8.054;2022-07-23T12:27:58;29.00;96.20
8953;DHT22;4511;50.890;8.054;2022-07-23T12:30:27;28.60;94.70
8953;DHT22;4511;50.890;8.054;2022-07-23T12:32:58;28.30;95.60
8953;DHT22;4511;50.890;8.054;2022-07-23T12:35:32;28.90;93.70
8953;DHT22;4511;50.890;8.054;2022-07-23T12:38:02;29.30;94.80
8953;DHT22;4511;50.890;8.054;2022-07-23T12:40:32;29.90;93.30
8953;DHT22;4511;50.890;8.054;2022-07-23T12:43:00;30.00;92.60
8953;DHT22;4511;50.890;8.054;2022-07-23T12:45:41;29.60;92.20
8953;DHT22;4511;50.890;8.054;2022-07-23T12:48:16;29.40;91.40
8953;DHT22;4511;50.890;8.054;2022-07-23T12:50:48;29.40;90.70
8953;DHT22;4511;50.890;8.054;2022-07-23T12:53:17;28.80;89.30
8953;DHT22;4511;50.890;8.054;2022-07-23T12:55:45;29.20;91.80
8953;DHT22;4511;50.890;8.054;2022-07-23T12:58:14;29.50;89.40
8953;DHT22;4511;50.890;8.054;2022-07-23T13:01:01;29.80;88.10
8953;DHT22;4511;50.890;8.054;2022-07-23T13:03:32;30.50;86.90
8953;DHT22;4511;50.890;8.054;2022-07-23T13:06:00;30.30;89.00
8953;DHT22;4511;50.890;8.054;2022-07-23T13:08:29;31.00;89.00
8953;DHT22;4511;50.890;8.054;2022-07-23T13:10:56;30.70;88.10
8953;DHT22;4511;50.890;8.054;2022-07-23T13:13:25;30.80;87.10
8953;DHT22;4511;50.890;8.054;2022-07-23T13:15:52;31.40;85.80
8953;DHT22;4511;50.890;8.054;2022-07-23T13:18:20;30.60;85.20
8953;DHT22;4511;50.890;8.054;2022-07-23T13:20:49;29.80;89.10
8953;DHT22;4511;50.890;8.054;2022-07-23T13:23:17;29.60;90.00
8953;DHT22;4511;50.890;8.054;2022-07-23T13:25:44;30.10;88.70
8953;DHT22;4511;50.890;8.054;2022-07-23T13:28:11;29.80;87.00
8953;DHT22;4511;50.890;8.054;2022-07-23T13:30:38;30.10;89.80
8953;DHT22;4511;50.890;8.054;2022-07-23T13:33:05;30.90;86.50
8953;DHT22;4511;50.890;8.054;2022-07-23T13:35:33;30.70;84.90
8953;DHT22;4511;50.890;8.054;2022-07-23T13:38:02;30.20;83.00
8953;DHT22;4511;50.890;8.054;2022-07-23T13:40:29;29.60;86.80
8953;DHT22;4511;50.890;8.054;2022-07-23T13:42:56;30.00;87.90
8953;DHT22;4511;50.890;8.054;2022-07-23T13:45:22;30.70;84.10
8953;DHT22;4511;50.890;8.054;2022-07-23T13:47:49;30.90;84.50
8953;DHT22;4511;50.890;8.054;2022-07-23T13:50:16;30.60;83.80
8953;DHT22;4511;50.890;8.054;2022-07-23T13:52:43;30.10;84.80
8953;DHT22;4511;50.890;8.054;2022-07-23T13:55:11;29.90;85.90
8953;DHT22;4511;50.890;8.054;2022-07-23T13:57:38;29.80;86.50
8953;DHT22;4511;50.890;8.054;2022-07-23T14:00:06;30.00;86.20
8953;DHT22;4511;50.890;8.054;2022-07-23T14:02:35;30.40;83.30
8953;DHT22;4511;50.890;8.054;2022-07-23T14:05:03;30.80;83.70
8953;DHT22;4511;50.890;8.054;2022-07-23T14:07:30;30.30;81.70
8953;DHT22;4511;50.890;8.054;2022-07-23T14:09:57;29.80;81.90
8953;DHT22;4511;50.890;8.054;2022-07-23T14:12:25;30.10;82.90
8953;DHT22;4511;50.890;8.054;2022-07-23T14:14:52;30.30;84.70
8953;DHT22;4511;50.890;8.054;2022-07-23T14:17:19;31.10;82.40
8953;DHT22;4511;50.890;8.054;2022-07-23T14:19:46;31.70;79.90
8953;DHT22;4511;50.890;8.054;2022-07-23T14:22:12;32.10;77.80
8953;DHT22;4511;50.890;8.054;2022-07-23T14:24:39;32.00;76.90
8953;DHT22;4511;50.890;8.054;2022-07-23T14:27:06;31.30;77.70
8953;DHT22;4511;50.890;8.054;2022-07-23T14:29:35;32.10;78.00
8953;DHT22;4511;50.890;8.054;2022-07-23T14:32:02;32.20;77.00
8953;DHT22;4511;50.890;8.054;2022-07-23T14:34:29;31.80;77.50
8953;DHT22;4511;50.890;8.054;2022-07-23T14:36:56;31.60;76.60
8953;DHT22;4511;50.890;8.054;2022-07-23T14:39:23;32.20;77.00
8953;DHT22;4511;50.890;8.054;2022-07-23T14:41:50;33.10;75.90
8953;DHT22;4511;50.890;8.054;2022-07-23T14:44:17;32.10;74.50
8953;DHT22;4511;50.890;8.054;2022-07-23T14:46:45;33.10;75.80
8953;DHT22;4511;50.890;8.054;2022-07-23T14:49:12;33.00;72.60
8953;DHT22;4511;50.890;8.054;2022-07-23T14:51:39;33.10;73.70
8953;DHT22;4511;50.890;8.054;2022-07-23T14:54:07;32.90;75.50
8953;DHT22;4511;50.890;8.054;2022-07-23T14:56:34;31.80;74.90
8953;DHT22;4511;50.890;8.054;2022-07-23T14:59:01;32.30;72.50
8953;DHT22;4511;50.890;8.054;2022-07-23T15:01:28;32.80;72.40
8953;DHT22;4511;50.890;8.054;2022-07-23T15:03:56;33.30;71.90
8953;DHT22;4511;50.890;8.054;2022-07-23T15:06:23;33.00;69.40
8953;DHT22;4511;50.890;8.054;2022-07-23T15:08:50;33.30;71.60
8953;DHT22;4511;50.890;8.054;2022-07-23T15:11:17;34.30;70.70
8953;DHT22;4511;50.890;8.054;2022-07-23T15:13:43;33.30;69.00
8953;DHT22;4511;50.890;8.054;2022-07-23T15:16:10;32.10;70.20
8953;DHT22;4511;50.890;8.054;2022-07-23T15:18:37;32.20;71.00
8953;DHT22;4511;50.890;8.054;2022-07-23T15:21:05;33.00;70.80
8953;DHT22;4511;50.890;8.054;2022-07-23T15:23:32;33.30;68.30
8953;DHT22;4511;50.890;8.054;2022-07-23T15:26:00;33.50;68.30
8953;DHT22;4511;50.890;8.054;2022-07-23T15:28:27;33.80;66.60
8953;DHT22;4511;50.890;8.054;2022-07-23T15:30:54;34.20;67.20
8953;DHT22;4511;50.890;8.054;2022-07-23T15:33:21;34.00;64.50
8953;DHT22;4511;50.890;8.054;2022-07-23T15:35:48;34.30;65.80
8953;DHT22;4511;50.890;8.054;2022-07-23T15:38:16;33.80;65.40
8953;DHT22;4511;50.890;8.054;2022-07-23T15:40:43;33.60;64.00
8953;DHT22;4511;50.890;8.054;2022-07-23T15:43:10;33.50;64.40
8953;DHT22;4511;50.890;8.054;2022-07-23T15:45:36;34.00;63.90
8953;DHT22;4511;50.890;8.054;2022-07-23T15:48:03;33.40;63.60
8953;DHT22;4511;50.890;8.054;2022-07-23T15:50:30;33.60;63.90
8953;DHT22;4511;50.890;8.054;2022-07-23T15:52:57;33.80;64.80
8953;DHT22;4511;50.890;8.054;2022-07-23T15:55:25;34.30;65.80
8953;DHT22;4511;50.890;8.054;2022-07-23T15:57:52;34.50;65.50
8953;DHT22;4511;50.890;8.054;2022-07-23T16:00:18;34.30;61.30
8953;DHT22;4511;50.890;8.054;2022-07-23T16:02:45;34.60;63.00
8953;DHT22;4511;50.890;8.054;2022-07-23T16:05:12;33.90;60.90
8953;DHT22;4511;50.890;8.054;2022-07-23T16:07:39;34.30;62.10
8953;DHT22;4511;50.890;8.054;2022-07-23T16:10:07;33.60;61.80
8953;DHT22;4511;50.890;8.054;2022-07-23T16:12:37;34.00;63.50